Time;durP1;ratioP1;P1;durP2;ratioP2;P2;SDS_P1;SDS_P2;PMS_P1;PMS_P2;Temp;Humidity;BMP_temperature;BMP_pressure;BME280_temperature;BME280_humidity;BME280_pressure;Samples;Min_cycle;Max_cycle;Signal;HPM_P1;HPM_P2
2022/11/26 00:01:17;;;;;;;11.05;6.55;;;;;;;1.94;100.00;100347.00;1713514;83;22277;-88
2022/11/26 00:03:44;;;;;;;11.38;5.47;;;;;;;1.96;100.00;100355.66;1716498;82;21151;-89
2022/11/26 00:06:35;;;;;;;10.63;5.80;;;;;;;1.88;100.00;100349.98;1714484;83;21132;-91
2022/11/26 00:09:05;;;;;;;10.93;5.45;;;;;;;1.96;100.00;100351.33;1712573;83;21055;-90
2022/11/26 00:11:32;;;;;;;9.30;5.78;;;;;;;1.85;100.00;100341.34;1723219;82;21556;-89
2022/11/26 00:13:59;;;;;;;10.43;6.28;;;;;;;2.18;100.00;100341.80;1722057;82;21084;-88
2022/11/26 00:16:26;;;;;;;15.20;6.80;;;;;;;2.19;100.00;100347.89;1698259;83;21111;-90
2022/11/26 00:18:52;;;;;;;10.30;5.83;;;;;;;1.87;100.00;100353.91;1669470;84;21136;-91
2022/11/26 00:21:24;;;;;;;8.10;5.22;;;;;;;1.82;100.00;100353.89;1699380;83;21616;-90
2022/11/26 00:23:50;;;;;;;10.08;6.30;;;;;;;2.25;100.00;100340.94;1670868;84;21169;-90
2022/11/26 00:26:21;;;;;;;12.03;6.90;;;;;;;2.31;100.00;100346.14;1699991;83;21123;-87
2022/11/26 00:28:55;;;;;;;12.07;7.12;;;;;;;2.14;100.00;100341.39;1689463;83;21142;-90
2022/11/26 00:31:23;;;;;;;12.37;6.65;;;;;;;1.93;100.00;100342.64;1670244;84;21638;-90
2022/11/26 00:33:49;;;;;;;12.05;6.70;;;;;;;2.10;100.00;100349.60;1696519;83;21092;-89
2022/11/26 00:36:28;;;;;;;13.60;7.00;;;;;;;1.90;100.00;100340.91;1685789;83;21056;-90
2022/11/26 00:39:08;;;;;;;16.80;7.35;;;;;;;1.87;100.00;100340.92;1699589;83;20993;-89
2022/11/26 00:41:38;;;;;;;15.65;7.20;;;;;;;2.11;100.00;100340.06;1697000;83;21079;-89
2022/11/26 00:44:22;;;;;;;14.38;6.87;;;;;;;1.93;100.00;100347.84;1692784;83;21055;-89
2022/11/26 00:46:49;;;;;;;11.22;5.90;;;;;;;2.01;100.00;100335.74;1670149;83;21232;-91
2022/11/26 00:49:15;;;;;;;10.55;6.70;;;;;;;2.00;100.00;100343.98;1669057;84;21141;-90
2022/11/26 00:51:44;;;;;;;14.83;7.30;;;;;;;2.02;100.00;100340.92;1670971;84;21100;-90
2022/11/26 00:54:13;;;;;;;11.05;6.12;;;;;;;2.05;100.00;100338.78;1669827;84;21077;-89
2022/11/26 00:56:41;;;;;;;12.70;6.97;;;;;;;2.09;100.00;100331.41;1670884;84;21078;-89
2022/11/26 00:59:13;;;;;;;11.53;6.22;;;;;;;2.01;100.00;100343.09;1670153;84;21145;-88
2022/11/26 01:01:40;;;;;;;12.35;6.85;;;;;;;2.01;100.00;100348.73;1697282;83;21004;-90
2022/11/26 01:04:06;;;;;;;12.82;5.80;;;;;;;2.05;100.00;100343.98;1690633;83;21127;-89
2022/11/26 01:06:41;;;;;;;11.75;6.22;;;;;;;1.92;100.00;100346.13;1672026;84;21919;-88
2022/11/26 01:09:18;;;;;;;11.05;6.22;;;;;;;1.96;100.00;100342.67;1698848;83;21096;-88
2022/11/26 01:11:45;;;;;;;14.28;6.35;;;;;;;1.88;100.00;100340.90;1697659;83;21223;-90
2022/11/26 01:14:17;;;;;;;11.40;5.87;;;;;;;1.93;100.00;100347.84;1697862;83;21096;-88
2022/11/26 01:16:45;;;;;;;9.93;5.45;;;;;;;1.73;100.00;100346.08;1658667;84;21144;-89
2022/11/26 01:19:14;;;;;;;10.35;5.45;;;;;;;1.92;100.00;100344.82;1687204;83;21357;-90
2022/11/26 01:21:41;;;;;;;9.58;5.45;;;;;;;1.80;100.00;100349.13;1696013;84;21117;-91
2022/11/26 01:24:09;;;;;;;9.70;5.22;;;;;;;1.84;100.00;100346.98;1678529;83;21082;-90
2022/11/26 01:26:40;;;;;;;10.87;5.10;;;;;;;1.86;100.00;100350.45;1684790;83;21122;-90
2022/11/26 01:29:12;;;;;;;10.80;5.60;;;;;;;1.89;100.00;100349.14;1691821;83;21429;-90
2022/11/26 01:31:39;;;;;;;7.50;4.65;;;;;;;1.96;100.00;100354.36;1675555;83;21826;-90
2022/11/26 01:34:05;;;;;;;8.38;5.10;;;;;;;1.93;100.00;100349.14;1684572;83;21058;-91
2022/11/26 01:36:35;;;;;;;10.98;5.80;;;;;;;1.99;100.00;100353.05;1684501;82;21078;-89
2022/11/26 01:39:08;;;;;;;9.03;4.87;;;;;;;2.22;100.00;100351.34;1672742;82;21116;-89
2022/11/26 01:42:26;;;;;;;12.33;6.05;;;;;;;2.30;100.00;100349.63;1677184;82;21095;-89
2022/11/26 01:44:52;;;;;;;9.18;5.40;;;;;;;2.25;100.00;100348.73;1669527;83;21399;-90
2022/11/26 01:47:26;;;;;;;7.75;4.75;;;;;;;2.34;100.00;100357.41;1674271;84;21104;-87
2022/11/26 01:50:34;;;;;;;9.10;5.20;;;;;;;2.40;100.00;100357.42;1685741;84;21158;-89
2022/11/26 01:53:09;;;;;;;9.08;5.45;;;;;;;2.43;100.00;100356.97;1682936;83;21096;-89
2022/11/26 01:55:45;;;;;;;5.58;4.22;;;;;;;2.42;100.00;100359.59;1687646;84;21158;-87
2022/11/26 01:58:15;;;;;;;7.45;4.75;;;;;;;2.43;100.00;100360.01;1694744;83;22139;-90
2022/11/26 02:00:42;;;;;;;7.15;4.50;;;;;;;2.39;100.00;100363.47;1666351;83;21581;-90
2022/11/26 02:03:09;;;;;;;7.85;4.72;;;;;;;2.30;100.00;100361.73;1722939;82;21135;-90
2022/11/26 02:05:45;;;;;;;7.78;4.25;;;;;;;2.38;100.00;100365.20;1721406;82;21092;-90
2022/11/26 02:08:13;;;;;;;10.45;4.92;;;;;;;2.39;100.00;100368.67;1720093;82;21104;-90
2022/11/26 02:10:39;;;;;;;8.13;4.67;;;;;;;2.36;100.00;100368.67;1721074;82;21205;-90
2022/11/26 02:13:07;;;;;;;7.42;4.72;;;;;;;2.35;100.00;100369.12;1726371;83;21077;-89
2022/11/26 02:15:42;;;;;;;6.72;4.15;;;;;;;2.35;100.00;100370.83;1716571;82;21034;-88
2022/11/26 02:18:09;;;;;;;9.25;4.53;;;;;;;2.44;100.00;100373.42;1713970;82;21036;-90
2022/11/26 02:20:59;;;;;;;9.18;4.75;;;;;;;2.39;100.00;100375.17;1713228;82;21303;-90
2022/11/26 02:23:55;;;;;;;8.18;5.03;;;;;;;2.43;100.00;100375.61;1721828;82;21130;-89
2022/11/26 02:26:49;;;;;;;7.92;4.80;;;;;;;2.45;100.00;100382.98;1712716;82;21098;-90
2022/11/26 02:30:02;;;;;;;7.28;4.20;;;;;;;2.48;100.00;100379.06;1708702;82;21018;-90
2022/11/26 02:32:46;;;;;;;7.80;4.83;;;;;;;2.61;100.00;100375.60;1721705;82;21147;-90
2022/11/26 02:35:27;;;;;;;7.92;4.72;;;;;;;2.64;100.00;100388.59;1703008;82;21149;-89
2022/11/26 02:37:57;;;;;;;8.33;5.20;;;;;;;2.60;100.00;100386.88;1714616;82;21172;-88
2022/11/26 02:40:25;;;;;;;9.05;4.83;;;;;;;2.16;100.00;100394.20;1721147;82;21201;-89
2022/11/26 02:42:51;;;;;;;8.00;4.72;;;;;;;2.42;100.00;100386.44;1707329;82;21120;-89
2022/11/26 02:45:25;;;;;;;6.10;4.30;;;;;;;2.57;100.00;100391.20;1703231;82;21046;-89
2022/11/26 02:47:54;;;;;;;8.08;4.87;;;;;;;2.61;100.00;100391.20;1717212;82;21112;-90
2022/11/26 02:50:31;;;;;;;6.58;4.47;;;;;;;2.58;100.00;100391.22;1725491;82;21866;-89
2022/11/26 02:52:58;;;;;;;7.33;4.85;;;;;;;2.60;100.00;100388.19;1725618;82;21161;-91
2022/11/26 02:55:29;;;;;;;7.50;4.58;;;;;;;2.68;100.00;100395.53;1725581;83;21996;-90
2022/11/26 02:57:55;;;;;;;;;;;;;;;2.54;100.00;100389.91;1715176;81;21581;-89
2022/11/26 03:00:22;;;;;;;9.28;6.25;;;;;;;2.64;100.00;100395.09;1709656;82;20217;-88
2022/11/26 03:03:09;;;;;;;8.95;5.12;;;;;;;2.54;100.00;100392.52;1719845;82;21082;-89
2022/11/26 03:05:38;;;;;;;9.10;5.28;;;;;;;2.04;100.00;100400.24;1720118;83;21057;-87
2022/11/26 03:08:04;;;;;;;6.78;4.35;;;;;;;2.04;100.00;100404.58;1710747;82;21026;-86
2022/11/26 03:10:31;;;;;;;7.08;3.98;;;;;;;2.03;100.00;100404.16;1715511;82;21109;-89
2022/11/26 03:12:58;;;;;;;7.67;4.87;;;;;;;2.05;100.00;100408.92;1716732;82;21019;-88
2022/11/26 03:15:24;;;;;;;6.92;4.62;;;;;;;2.06;100.00;100408.05;1698880;82;22285;-89
2022/11/26 03:17:51;;;;;;;6.72;4.47;;;;;;;2.10;100.00;100402.00;1703478;82;21124;-88
2022/11/26 03:20:17;;;;;;;12.18;4.90;;;;;;;2.05;100.00;100408.48;1708370;81;21137;-89
2022/11/26 03:22:44;;;;;;;8.95;5.35;;;;;;;2.17;100.00;100407.64;1726288;82;21058;-90
2022/11/26 03:25:11;;;;;;;8.98;5.33;;;;;;;2.00;100.00;100411.92;1720081;82;21134;-89
2022/11/26 03:27:39;;;;;;;8.05;5.30;;;;;;;2.09;100.00;100409.34;1714895;82;21137;-90
2022/11/26 03:30:08;;;;;;;10.00;5.87;;;;;;;2.05;100.00;100411.53;1723643;82;22224;-90
2022/11/26 03:32:36;;;;;;;9.58;5.72;;;;;;;2.04;100.00;100409.77;1715988;82;21141;-90
2022/11/26 03:35:06;;;;;;;9.35;5.75;;;;;;;2.05;100.00;100419.32;1700581;82;21106;-90
2022/11/26 03:37:33;;;;;;;7.83;5.17;;;;;;;2.06;100.00;100420.59;1703493;82;21093;-90
2022/11/26 03:39:59;;;;;;;6.80;4.47;;;;;;;2.06;100.00;100424.94;1717394;82;21318;-91
2022/11/26 03:42:25;;;;;;;7.67;4.58;;;;;;;2.08;100.00;100423.21;1711791;82;21210;-90
2022/11/26 03:44:52;;;;;;;8.80;5.67;;;;;;;2.06;100.00;100417.14;1712556;82;21183;-90
2022/11/26 03:47:18;;;;;;;9.15;5.05;;;;;;;2.14;100.00;100424.53;1713821;82;21165;-87
2022/11/26 03:49:44;;;;;;;8.75;4.97;;;;;;;2.04;100.00;100426.66;1726220;82;21128;-93
2022/11/26 03:52:12;;;;;;;10.40;5.90;;;;;;;2.03;100.00;100424.94;1703000;82;21096;-87
2022/11/26 03:54:38;;;;;;;8.23;5.45;;;;;;;2.11;100.00;100418.02;1724842;82;21442;-90
2022/11/26 03:57:05;;;;;;;8.90;5.10;;;;;;;2.05;100.00;100423.22;1724174;80;21678;-88
2022/11/26 03:59:32;;;;;;;7.25;4.72;;;;;;;2.04;100.00;100424.92;1702035;82;21048;-89
2022/11/26 04:01:58;;;;;;;10.00;5.75;;;;;;;2.05;100.00;100428.41;1720831;82;21029;-89
2022/11/26 04:04:25;;;;;;;8.35;5.40;;;;;;;2.20;100.00;100425.83;1722956;82;21230;-89
2022/11/26 04:06:51;;;;;;;8.28;5.42;;;;;;;2.18;100.00;100432.75;1727444;82;21022;-89
2022/11/26 04:09:18;;;;;;;11.22;5.62;;;;;;;2.18;100.00;100431.45;1713257;82;21025;-90
2022/11/26 04:11:46;;;;;;;7.72;4.80;;;;;;;2.02;100.00;100410.20;1719010;82;21069;-89
2022/11/26 04:14:15;;;;;;;7.97;5.17;;;;;;;2.16;100.00;100439.67;1727712;82;21052;-89
2022/11/26 04:16:42;;;;;;;11.40;6.95;;;;;;;2.27;100.00;100435.36;1701061;82;21199;-90
2022/11/26 04:19:09;;;;;;;8.08;5.17;;;;;;;2.31;100.00;100435.81;1696006;84;21184;-91
2022/11/26 04:21:36;;;;;;;9.70;6.15;;;;;;;2.33;100.00;100446.22;1662795;84;21065;-90
2022/11/26 04:24:04;;;;;;;11.38;6.50;;;;;;;2.22;100.00;100455.28;1682062;84;21150;-92
2022/11/26 04:26:32;;;;;;;8.68;5.25;;;;;;;2.17;100.00;100451.81;1695817;84;22063;-90
2022/11/26 04:28:58;;;;;;;9.00;5.62;;;;;;;2.26;100.00;100451.84;1685528;84;21549;-91
2022/11/26 04:31:26;;;;;;;11.15;5.67;;;;;;;2.19;100.00;100449.23;1697896;84;21037;-90
2022/11/26 04:33:52;;;;;;;8.43;5.28;;;;;;;2.08;100.00;100444.00;1695163;84;21084;-90
2022/11/26 04:36:20;;;;;;;9.25;5.22;;;;;;;2.11;100.00;100450.48;1687496;84;21067;-91
2022/11/26 04:38:46;;;;;;;11.78;5.58;;;;;;;2.18;100.00;100453.53;1675962;84;21021;-90
2022/11/26 04:41:13;;;;;;;10.18;5.60;;;;;;;2.15;100.00;100450.94;1690807;84;21124;-91
2022/11/26 04:43:41;;;;;;;10.48;5.62;;;;;;;2.12;100.00;100445.75;1675638;84;21621;-91
2022/11/26 04:46:08;;;;;;;9.75;5.60;;;;;;;2.16;100.00;100446.16;1678406;84;21121;-89
2022/11/26 04:48:35;;;;;;;10.32;5.60;;;;;;;2.10;100.00;100451.37;1676257;84;21083;-89
2022/11/26 04:51:03;;;;;;;10.72;4.80;;;;;;;2.12;100.00;100449.64;1692587;84;21100;-90
2022/11/26 10:58:05;;;;;;;24.60;12.13;;;;;;;0.66;100.00;100692.50;1879303;74;24054;-88
2022/11/26 11:00:42;;;;;;;25.97;11.83;;;;;;;1.51;100.00;100688.20;1857277;77;21021;-89
2022/11/26 11:03:16;;;;;;;30.70;12.40;;;;;;;2.58;100.00;100692.84;1856266;77;21144;-90
2022/11/26 11:05:44;;;;;;;33.05;15.23;;;;;;;3.12;100.00;100693.88;1858400;76;20984;-90
2022/11/26 11:08:31;;;;;;;28.85;13.38;;;;;;;2.95;100.00;100694.28;1858765;77;21130;-89
2022/11/26 11:11:00;;;;;;;27.87;12.68;;;;;;;3.17;100.00;100706.03;1858931;77;21004;-89
2022/11/26 11:13:42;;;;;;;22.35;10.95;;;;;;;3.42;100.00;100706.95;1858675;77;21663;-90
2022/11/26 11:16:09;;;;;;;20.35;10.30;;;;;;;3.25;100.00;100706.50;1859269;77;21048;-90
2022/11/26 11:18:35;;;;;;;19.87;10.18;;;;;;;3.03;100.00;100706.86;1859183;77;21024;-90
2022/11/26 11:21:03;;;;;;;19.35;10.10;;;;;;;3.06;100.00;100706.00;1859695;77;21013;-91
2022/11/26 11:23:35;;;;;;;19.10;10.15;;;;;;;3.01;100.00;100711.19;1859433;77;21091;-89
2022/11/26 11:26:10;;;;;;;19.45;9.78;;;;;;;2.83;100.00;100711.13;1859719;77;20997;-87
2022/11/26 11:28:42;;;;;;;18.42;9.38;;;;;;;2.65;100.00;100719.30;1859907;77;21503;-90
2022/11/26 11:31:11;;;;;;;17.45;9.03;;;;;;;2.68;100.00;100714.55;1858433;77;21048;-89
2022/11/26 11:33:39;;;;;;;16.73;8.88;;;;;;;2.42;100.00;100714.42;1859380;77;21566;-89
2022/11/26 11:36:17;;;;;;;16.02;9.05;;;;;;;2.49;100.00;100717.49;1859187;77;21709;-90
2022/11/26 11:39:01;;;;;;;18.82;9.95;;;;;;;2.45;100.00;100723.53;1859417;77;21099;-89
2022/11/26 11:41:44;;;;;;;15.20;7.87;;;;;;;2.52;100.00;100718.80;1858696;76;21762;-89
2022/11/26 11:44:38;;;;;;;17.92;8.60;;;;;;;2.41;100.00;100728.27;1859573;77;21055;-90
2022/11/26 11:47:33;;;;;;;18.75;8.55;;;;;;;2.46;100.00;100727.85;1858728;77;21061;-89
2022/11/26 11:50:22;;;;;;;15.43;8.88;;;;;;;2.41;100.00;100741.26;1857786;77;21015;-91
2022/11/26 11:53:25;;;;;;;18.75;9.90;;;;;;;2.45;100.00;100743.02;1857611;77;20971;-90
2022/11/26 11:56:14;;;;;;;33.70;18.85;;;;;;;2.27;100.00;100743.34;1857106;77;21100;-88
2022/11/26 11:58:50;;;;;;;22.48;10.15;;;;;;;2.33;100.00;100745.56;1852270;77;21073;-89
2022/11/26 12:01:34;;;;;;;20.62;10.85;;;;;;;2.29;100.00;100746.81;1858079;77;21018;-89
2022/11/26 12:04:17;;;;;;;17.65;9.50;;;;;;;2.25;100.00;100745.48;1857656;77;20991;-89
2022/11/26 12:07:14;;;;;;;17.17;10.10;;;;;;;2.39;100.00;100750.78;1858163;77;20996;-89
2022/11/26 12:09:53;;;;;;;15.58;8.43;;;;;;;2.53;100.00;100751.72;1822692;78;22121;-90
2022/11/26 12:12:28;;;;;;;27.15;14.95;;;;;;;2.65;100.00;100754.41;1822707;78;21120;-90
2022/11/26 12:15:00;;;;;;;29.67;16.85;;;;;;;2.56;100.00;100753.50;1842545;77;21027;-90
2022/11/26 12:17:38;;;;;;;25.20;14.75;;;;;;;2.73;100.00;100752.70;1857457;77;21495;-89
2022/11/26 12:20:26;;;;;;;39.90;23.25;;;;;;;2.69;100.00;100754.88;1857150;77;20893;-90
2022/11/26 12:23:23;;;;;;;18.75;11.83;;;;;;;2.75;100.00;100755.76;1856964;77;21097;-88
2022/11/26 12:26:07;;;;;;;14.87;7.75;;;;;;;2.49;100.00;100758.66;1857334;77;20968;-89
2022/11/26 12:28:52;;;;;;;17.82;9.90;;;;;;;2.22;100.00;100754.14;1857701;77;21057;-89
2022/11/26 12:31:39;;;;;;;19.37;9.48;;;;;;;2.19;100.00;100754.12;1856208;77;21007;-89
2022/11/26 12:34:32;;;;;;;18.57;9.18;;;;;;;2.23;100.00;100747.20;1857222;77;21038;-88
2022/11/26 12:37:17;;;;;;;15.18;8.65;;;;;;;2.10;100.00;100753.62;1857601;77;21916;-90
2022/11/26 12:39:55;;;;;;;12.90;8.28;;;;;;;1.98;100.00;100752.24;1834858;77;20912;-90
2022/11/26 12:42:44;;;;;;;16.93;7.87;;;;;;;2.05;100.00;100757.06;1861458;75;20928;-90
2022/11/26 12:45:41;;;;;;;15.93;7.22;;;;;;;2.08;100.00;100760.97;1861481;75;21556;-89
2022/11/26 12:48:41;;;;;;;16.97;8.70;;;;;;;2.30;100.00;100764.17;1860386;75;21038;-88
2022/11/26 12:51:43;;;;;;;14.15;7.92;;;;;;;2.26;100.00;100765.00;1860435;75;21102;-90
2022/11/26 12:54:19;;;;;;;;;;;;;;;2.10;100.00;100769.65;1860372;77;21058;-88
2022/11/26 12:56:59;;;;;;;14.47;8.35;;;;;;;1.99;100.00;100772.15;1857695;77;20175;-91
2022/11/26 13:00:09;;;;;;;16.97;8.85;;;;;;;2.16;100.00;100769.67;1827008;77;21092;-90
2022/11/26 13:02:43;;;;;;;15.38;8.75;;;;;;;2.40;100.00;100775.49;1727677;81;21034;-67
2022/11/26 13:05:20;;;;;;;34.23;18.10;;;;;;;2.33;100.00;100784.55;1761135;81;20989;-67
2022/11/26 13:07:58;;;;;;;116.28;48.98;;;;;;;2.29;100.00;100781.91;1760972;81;21056;-67
2022/11/26 13:10:46;;;;;;;34.38;16.02;;;;;;;2.23;100.00;100790.98;1760955;80;21016;-67
2022/11/26 13:13:37;;;;;;;21.70;11.10;;;;;;;2.31;100.00;100788.42;1761501;81;21608;-67
2022/11/26 13:16:26;;;;;;;16.82;9.15;;;;;;;2.04;100.00;100789.08;1756274;81;21619;-67
2022/11/26 13:18:59;;;;;;;13.88;8.43;;;;;;;2.11;100.00;100790.86;1755584;81;21101;-67
2022/11/26 13:21:57;;;;;;;16.90;8.78;;;;;;;2.18;100.00;100796.55;1755521;81;21080;-68
2022/11/26 13:24:38;;;;;;;14.43;9.05;;;;;;;2.10;100.00;100793.03;1755554;81;21542;-67
2022/11/26 13:27:15;;;;;;;16.30;9.40;;;;;;;2.14;100.00;100794.80;1755449;81;21492;-67
2022/11/26 13:30:00;;;;;;;10.28;6.72;;;;;;;2.07;100.00;100796.88;1755429;81;21056;-67
2022/11/26 13:33:05;;;;;;;15.53;9.20;;;;;;;1.99;100.00;100802.46;1755375;81;21281;-68
2022/11/26 13:35:59;;;;;;;15.38;8.70;;;;;;;1.98;100.00;100800.70;1745822;81;21020;-66
2022/11/26 13:39:06;;;;;;;14.60;6.55;;;;;;;2.35;100.00;100803.19;1755367;81;21060;-67
2022/11/26 13:42:01;;;;;;;15.32;7.42;;;;;;;2.09;100.00;100801.67;1754976;81;21099;-68
2022/11/26 13:44:52;;;;;;;12.03;6.70;;;;;;;2.10;100.00;100799.53;1743154;81;21583;-68
2022/11/26 13:47:48;;;;;;;14.07;7.53;;;;;;;2.10;100.00;100806.89;1755608;81;21783;-66
2022/11/26 13:50:20;;;;;;;12.15;6.50;;;;;;;2.09;100.00;100809.46;1755387;81;21051;-67
2022/11/26 13:52:57;;;;;;;12.25;7.00;;;;;;;1.85;100.00;100810.99;1755474;81;21029;-67
2022/11/26 13:55:38;;;;;;;11.97;6.37;;;;;;;1.60;100.00;100814.20;1755411;81;20997;-68
2022/11/26 13:58:05;;;;;;;9.70;6.40;;;;;;;1.81;100.00;100818.30;1748004;81;21095;-68
2022/11/26 14:00:33;;;;;;;12.10;7.00;;;;;;;1.91;100.00;100820.98;1729506;81;21224;-67
2022/11/26 14:03:01;;;;;;;10.00;6.33;;;;;;;1.94;100.00;100823.20;1759837;81;21028;-66
2022/11/26 14:05:56;;;;;;;9.98;6.08;;;;;;;1.98;100.00;100831.88;1759859;81;21008;-67
2022/11/26 14:08:40;;;;;;;10.63;6.08;;;;;;;2.01;100.00;100831.92;1760109;80;20992;-67
2022/11/26 14:11:10;;;;;;;9.75;6.37;;;;;;;1.97;100.00;100841.41;1759649;81;21020;-67
2022/11/26 14:13:37;;;;;;;10.60;6.10;;;;;;;1.87;100.00;100834.39;1760345;81;21032;-68
2022/11/26 14:16:08;;;;;;;10.00;6.47;;;;;;;1.98;100.00;100843.56;1759927;81;20993;-68
2022/11/26 14:18:59;;;;;;;9.30;6.03;;;;;;;1.85;100.00;100846.48;1760019;81;21048;-67
2022/11/26 14:21:24;;;;;;;9.45;6.35;;;;;;;1.83;100.00;100843.87;1759778;81;21001;-67
2022/11/26 14:23:52;;;;;;;14.60;8.28;;;;;;;1.85;100.00;100848.66;1759946;81;20980;-68
2022/11/26 14:26:38;;;;;;;11.97;7.28;;;;;;;1.97;100.00;100840.54;1760402;81;21158;-66
2022/11/26 14:29:12;;;;;;;15.78;7.80;;;;;;;1.91;100.00;100845.67;1759904;81;20996;-67
2022/11/26 19:50:10;;;;;;;18.90;10.80;;;;;;;-0.38;100.00;101007.61;1795795;78;23231;-89
2022/11/26 19:52:37;;;;;;;17.52;11.18;;;;;;;0.80;100.00;101009.00;1749338;81;21083;-90
2022/11/26 19:55:05;;;;;;;21.20;12.70;;;;;;;1.24;100.00;101008.83;1733889;81;21242;-90
2022/11/26 19:57:33;;;;;;;20.97;13.28;;;;;;;1.23;100.00;101009.27;1760336;81;21023;-91
2022/11/26 20:00:00;;;;;;;20.40;11.53;;;;;;;1.40;100.00;101016.42;1761664;81;21036;-90
2022/11/26 20:02:26;;;;;;;20.48;11.90;;;;;;;1.50;100.00;101014.42;1733051;81;20988;-90
2022/11/26 20:04:54;;;;;;;16.55;10.85;;;;;;;1.50;100.00;101016.16;1760106;81;21041;-89
2022/11/26 20:07:22;;;;;;;18.62;12.43;;;;;;;1.48;100.00;101016.55;1761058;80;21151;-89
2022/11/26 20:09:51;;;;;;;16.83;10.50;;;;;;;1.61;100.00;101010.66;1792045;80;20929;-90
2022/11/26 20:12:18;;;;;;;18.20;10.68;;;;;;;1.73;100.00;101016.47;1792171;80;21044;-88
2022/11/26 20:14:46;;;;;;;14.30;9.43;;;;;;;1.86;100.00;101015.35;1792607;80;20988;-90
2022/11/26 20:17:12;;;;;;;41.75;19.55;;;;;;;1.80;100.00;101010.06;1767978;80;20956;-86
2022/11/26 20:19:38;;;;;;;30.88;16.02;;;;;;;1.85;100.00;101016.63;1765611;81;21011;-88
2022/11/26 20:22:05;;;;;;;19.45;11.68;;;;;;;1.67;100.00;101015.94;1763360;81;21003;-89
2022/11/26 20:24:32;;;;;;;16.10;10.43;;;;;;;1.43;100.00;101018.66;1762503;81;21070;-89
2022/11/26 20:27:00;;;;;;;17.50;10.85;;;;;;;1.58;100.00;101021.02;1762576;81;20969;-90
2022/11/26 20:29:28;;;;;;;16.20;10.72;;;;;;;1.66;100.00;101018.11;1763099;81;21039;-91
2022/11/26 20:31:55;;;;;;;15.90;9.83;;;;;;;1.70;100.00;101015.97;1763234;81;21168;-90
2022/11/26 20:34:24;;;;;;;14.83;9.15;;;;;;;1.66;100.00;101011.62;1776986;80;21017;-89
2022/11/26 20:36:51;;;;;;;12.07;8.13;;;;;;;1.69;100.00;101018.14;1762609;80;21103;-91
2022/11/26 20:39:20;;;;;;;14.55;9.30;;;;;;;1.59;100.00;101018.45;1791106;80;21091;-89
2022/11/26 20:41:47;;;;;;;14.05;8.50;;;;;;;1.63;100.00;101014.16;1791147;80;21040;-89
2022/11/26 20:44:14;;;;;;;11.48;7.60;;;;;;;1.89;100.00;101006.72;1791478;80;21110;-91
2022/11/26 20:46:41;;;;;;;13.53;8.30;;;;;;;1.91;100.00;101001.52;1790828;80;21068;-89
2022/11/26 20:49:10;;;;;;;14.05;9.35;;;;;;;1.82;100.00;100999.27;1785699;80;21048;-89
2022/11/26 20:51:36;;;;;;;12.47;8.55;;;;;;;1.70;100.00;101005.59;1779855;80;21009;-89
2022/11/26 20:54:03;;;;;;;13.38;8.73;;;;;;;1.74;100.00;101015.17;1780129;80;21060;-90
2022/11/26 20:56:30;;;;;;;15.15;9.50;;;;;;;1.73;100.00;101013.44;1780260;80;21344;-90
2022/11/26 20:58:57;;;;;;;16.52;9.73;;;;;;;1.83;100.00;101015.72;1781246;80;20997;-88
2022/11/26 21:01:26;;;;;;;16.37;9.85;;;;;;;1.75;100.00;101023.83;1780353;80;21088;-89
2022/11/26 21:03:54;;;;;;;14.15;9.50;;;;;;;1.83;100.00;101020.92;1780509;80;21029;-88
2022/11/26 21:06:23;;;;;;;14.43;8.90;;;;;;;1.77;100.00;101023.02;1780356;80;21072;-90
2022/11/26 21:08:52;;;;;;;15.75;9.13;;;;;;;1.62;100.00;101020.21;1780513;80;21293;-90
2022/11/26 21:11:19;;;;;;;14.18;9.38;;;;;;;1.68;100.00;101028.96;1779942;80;21109;-90
2022/11/26 21:13:46;;;;;;;13.22;8.40;;;;;;;1.57;100.00;101027.07;1749944;80;21080;-89
2022/11/26 21:16:15;;;;;;;11.97;8.13;;;;;;;1.76;100.00;101022.56;1765622;80;21523;-90
2022/11/26 21:18:45;;;;;;;14.00;8.05;;;;;;;1.77;100.00;101026.02;1752073;81;21048;-90
2022/11/26 21:21:14;;;;;;;12.30;8.37;;;;;;;1.69;100.00;101031.13;1752213;81;21314;-91
2022/11/26 21:23:43;;;;;;;14.18;8.68;;;;;;;1.63;100.00;101029.73;1751013;82;21354;-92
2022/11/26 21:26:15;;;;;;;13.53;8.63;;;;;;;1.52;100.00;101031.30;1751221;82;22337;-90
2022/11/26 21:28:41;;;;;;;14.18;8.08;;;;;;;1.43;100.00;101025.14;1750642;81;21071;-90
2022/11/26 21:31:16;;;;;;;13.35;7.65;;;;;;;1.45;100.00;101028.64;1751782;82;21035;-89
2022/11/26 21:33:46;;;;;;;14.43;9.33;;;;;;;1.65;100.00;101035.82;1751690;82;21239;-90
2022/11/26 21:36:16;;;;;;;13.72;8.43;;;;;;;1.60;100.00;101033.16;1751759;82;21037;-88
2022/11/26 21:38:47;;;;;;;14.57;8.70;;;;;;;1.44;100.00;101038.55;1751572;82;21031;-90
2022/11/26 21:41:15;;;;;;;13.20;8.48;;;;;;;1.52;100.00;101044.28;1751643;81;21019;-90
2022/11/26 21:43:42;;;;;;;13.93;8.85;;;;;;;1.43;100.00;101045.91;1732869;82;21098;-89
2022/11/26 21:46:22;;;;;;;14.83;9.13;;;;;;;1.41;100.00;101054.09;1751749;81;21137;-90
2022/11/26 21:48:55;;;;;;;12.80;8.98;;;;;;;1.38;100.00;101050.16;1778757;80;21016;-89
2022/11/26 21:51:26;;;;;;;14.68;8.63;;;;;;;1.40;100.00;101053.66;1785285;80;21111;-90
2022/11/26 21:53:54;;;;;;;12.95;8.68;;;;;;;1.44;100.00;101050.23;1785834;80;21028;-90
2022/11/26 21:56:24;;;;;;;13.10;8.83;;;;;;;1.40;100.00;101049.77;1785853;80;20985;-90
2022/11/26 21:58:51;;;;;;;12.85;8.23;;;;;;;1.40;100.00;101040.68;1785291;80;21232;-90
2022/11/26 22:01:24;;;;;;;15.28;9.45;;;;;;;1.55;100.00;101039.16;1785736;80;21044;-90
